Terminal Aerodrome Forecast
Issued by NWS

Home | Current Version | Previous Version | Text Only | Print | Product List | Glossary On
Versions: 1 2 3 4 5 6 7 8 9 10 11 12 13 14 15 16 17 18 19 20
990
FTUS43 KEAX 221120
TAFSTJ
TAF
KSTJ 221120Z 2212/2312 18004KT P6SM BKN130
     FM221400 21008KT P6SM VCSH BKN080
     FM221800 24010KT P6SM VCTS OVC050CB
     FM230300 20005KT P6SM BKN050
     FM230900 27005KT P6SM OVC025=

USA.gov is the U.S. government's official web portal to all federal, state and local government web resources and services.